Time;durP1;ratioP1;P1;durP2;ratioP2;P2;SDS_P1;SDS_P2;PMS_P1;PMS_P2;Temp;Humidity;BMP_temperature;BMP_pressure;BME280_temperature;BME280_humidity;BME280_pressure;Samples;Min_cycle;Max_cycle;Signal;HPM_P1;HPM_P2
2024/04/14 00:00:55;;;;;;;4.30;3.30;;;;;;;14.90;56.04;99144.55;105809;1253;74666;-28
2024/04/14 00:03:24;;;;;;;7.30;3.50;;;;;;;14.71;56.15;99142.59;105785;1257;74530;-27
2024/04/14 00:05:52;;;;;;;4.20;3.50;;;;;;;14.50;56.78;99149.24;105727;1259;71870;-28
2024/04/14 00:08:19;;;;;;;7.00;4.60;;;;;;;14.31;57.36;99148.75;105675;1257;61346;-28
2024/04/14 00:10:47;;;;;;;8.60;4.90;;;;;;;14.13;57.61;99147.29;105568;1251;61384;-28
2024/04/14 00:13:15;;;;;;;9.10;4.30;;;;;;;13.96;57.96;99144.75;105714;1259;72457;-28
2024/04/14 00:15:42;;;;;;;9.30;4.70;;;;;;;13.84;58.28;99143.59;105653;1259;74484;-27
2024/04/14 00:18:10;;;;;;;4.30;2.70;;;;;;;13.62;59.14;99144.47;105527;1254;72676;-27
2024/04/14 00:20:39;;;;;;;7.80;4.00;;;;;;;14.13;58.75;99141.23;105836;1259;61241;-28
2024/04/14 00:23:06;;;;;;;8.30;3.90;;;;;;;14.76;56.79;99132.31;105628;1258;61285;-27
2024/04/14 00:25:34;;;;;;;8.10;4.00;;;;;;;14.88;56.12;99127.27;105640;1259;74766;-27
2024/04/14 00:28:02;;;;;;;4.20;3.40;;;;;;;14.77;56.20;99124.89;105644;1253;74262;-27
2024/04/14 00:30:29;;;;;;;6.90;3.90;;;;;;;14.55;56.33;99126.57;105733;1254;72670;-27
2024/04/14 00:32:57;;;;;;;6.90;4.00;;;;;;;14.33;57.03;99120.32;105565;1257;61884;-27
2024/04/14 00:35:25;;;;;;;5.50;3.90;;;;;;;14.15;57.35;99121.70;105893;1266;61217;-27
2024/04/14 00:37:52;;;;;;;6.80;4.10;;;;;;;14.01;57.82;99115.80;105605;1260;74705;-27
2024/04/14 00:40:20;;;;;;;6.80;4.50;;;;;;;13.84;58.36;99117.58;105725;1257;73574;-27
2024/04/14 00:42:48;;;;;;;6.50;4.20;;;;;;;13.64;58.86;99121.70;105796;1254;71011;-27
2024/04/14 00:45:16;;;;;;;4.60;2.60;;;;;;;13.33;60.03;99129.55;105517;1267;61635;-27
2024/04/14 00:47:43;;;;;;;7.00;3.50;;;;;;;13.79;59.66;99128.64;105616;1257;61173;-27
2024/04/14 00:50:11;;;;;;;7.50;4.20;;;;;;;14.38;58.04;99122.63;105856;1257;73715;-27
2024/04/14 00:52:39;;;;;;;7.50;4.00;;;;;;;14.47;57.33;99118.80;105763;1260;74502;-27
2024/04/14 00:55:06;;;;;;;9.40;4.50;;;;;;;14.34;57.74;99115.65;105670;1256;71480;-27
2024/04/14 00:57:34;;;;;;;7.50;3.70;;;;;;;14.16;58.21;99117.88;105624;1255;61253;-27
2024/04/14 01:00:01;;;;;;;8.70;4.30;;;;;;;13.99;58.68;99118.50;105633;1254;61239;-27
2024/04/14 01:02:29;;;;;;;7.30;4.50;;;;;;;13.78;59.12;99123.08;105508;1256;73358;-27
2024/04/14 01:04:56;;;;;;;6.60;4.70;;;;;;;13.61;59.63;99124.61;105460;1256;73215;-27
2024/04/14 01:07:24;;;;;;;6.60;4.20;;;;;;;13.46;59.95;99122.46;105781;1256;72671;-27
2024/04/14 01:09:51;;;;;;;4.20;2.60;;;;;;;13.24;60.68;99124.98;105597;1256;61335;-27
2024/04/14 01:12:19;;;;;;;4.80;3.40;;;;;;;13.78;60.03;99127.92;105468;1261;61222;-27
2024/04/14 01:14:47;;;;;;;6.70;3.80;;;;;;;14.38;58.03;99126.96;105854;1257;74591;-27
2024/04/14 01:17:14;;;;;;;8.40;3.70;;;;;;;14.48;57.19;99117.88;105589;1256;72579;-27
2024/04/14 01:19:42;;;;;;;8.10;3.80;;;;;;;14.34;57.53;99113.95;105733;1257;72627;-27
2024/04/14 01:22:11;;;;;;;4.80;3.20;;;;;;;14.12;58.03;99116.54;105864;1267;61248;-27
2024/04/14 01:24:38;;;;;;;8.10;4.30;;;;;;;13.89;58.76;99120.98;105801;1257;61215;-27
2024/04/14 01:27:06;;;;;;;7.20;4.10;;;;;;;13.70;58.93;99125.54;105677;1254;74595;-27
2024/04/14 01:29:33;;;;;;;5.90;3.70;;;;;;;13.50;58.95;99126.65;105653;1258;74370;-27
2024/04/14 01:32:02;;;;;;;5.10;4.30;;;;;;;13.30;59.28;99128.40;105783;1254;72703;-27
2024/04/14 01:34:29;;;;;;;6.20;2.60;;;;;;;13.08;60.34;99127.69;105587;1259;61658;-27
2024/04/14 01:36:57;;;;;;;7.00;3.50;;;;;;;13.55;59.96;99127.73;105642;1257;61298;-27
2024/04/14 01:39:25;;;;;;;7.30;3.60;;;;;;;14.12;58.65;99127.73;105748;1260;73510;-27
2024/04/14 01:41:52;;;;;;;4.90;3.50;;;;;;;14.18;58.24;99127.88;105852;1257;73110;-27
2024/04/14 01:44:20;;;;;;;8.40;3.00;;;;;;;13.93;58.35;99124.92;105820;1251;72784;-27
2024/04/14 01:46:47;;;;;;;6.70;3.40;;;;;;;13.56;59.12;99125.42;105602;1253;61337;-27
2024/04/14 01:49:15;;;;;;;7.40;3.20;;;;;;;13.28;59.67;99125.13;105804;1256;61249;-27
2024/04/14 01:51:43;;;;;;;4.90;3.10;;;;;;;13.00;61.06;99120.88;105651;1255;74815;-27
2024/04/14 01:54:12;;;;;;;5.70;3.80;;;;;;;12.74;61.96;99118.68;105868;1256;73249;-27
2024/04/14 01:56:39;;;;;;;2.10;1.80;;;;;;;12.57;61.60;99115.84;105703;1257;72700;-27
2024/04/14 01:59:07;;;;;;;7.20;3.20;;;;;;;13.04;60.89;99117.72;105597;1256;61351;-27
2024/04/14 02:01:35;;;;;;;5.60;3.30;;;;;;;13.54;59.66;99116.52;105522;1257;61203;-27
2024/04/14 02:04:03;;;;;;;3.10;2.30;;;;;;;13.50;59.05;99115.84;105606;1257;74673;-27
2024/04/14 02:06:31;;;;;;;2.70;2.50;;;;;;;13.21;59.30;99116.33;105834;1251;73213;-27
2024/04/14 02:08:58;;;;;;;3.30;2.70;;;;;;;12.90;60.02;99110.79;105520;1259;72686;-27
2024/04/14 02:11:26;;;;;;;3.40;2.40;;;;;;;12.64;60.14;99109.83;105602;1253;61253;-27
2024/04/14 02:13:53;;;;;;;4.90;3.10;;;;;;;12.33;61.15;99098.55;105663;1260;61322;-27
2024/04/14 02:16:21;;;;;;;3.90;3.20;;;;;;;11.97;61.92;99094.87;105679;1259;74604;-27
2024/04/14 02:18:48;;;;;;;2.40;2.10;;;;;;;11.58;63.68;99092.09;105749;1267;72755;-27
2024/04/14 02:21:16;;;;;;;2.90;2.30;;;;;;;12.04;63.75;99094.92;105699;1256;71267;-27
2024/04/14 02:23:46;;;;;;;3.80;2.40;;;;;;;12.52;62.25;99093.63;105644;1257;61332;-27
2024/04/14 02:26:13;;;;;;;4.70;2.70;;;;;;;12.50;62.13;99086.14;105673;1257;61296;-27
2024/04/14 02:28:41;;;;;;;3.70;2.40;;;;;;;12.28;62.44;99082.48;105823;1257;73772;-27
2024/04/14 02:31:10;;;;;;;4.40;2.90;;;;;;;12.03;62.67;99083.23;105649;1259;73858;-27
2024/04/14 02:33:40;;;;;;;4.50;3.10;;;;;;;11.86;63.75;99085.92;105890;1254;71426;-27
2024/04/14 02:36:08;;;;;;;3.90;3.40;;;;;;;11.73;64.18;99080.22;105858;1254;61384;-28
2024/04/14 02:38:35;;;;;;;3.60;2.40;;;;;;;11.52;64.06;99079.73;105582;1257;61229;-27
2024/04/14 02:41:04;;;;;;;2.50;2.00;;;;;;;12.00;63.48;99079.48;105655;1260;74667;-27
2024/04/14 02:43:33;;;;;;;3.90;2.80;;;;;;;12.58;62.20;99080.02;105571;1260;74459;-27
2024/04/14 02:46:00;;;;;;;4.90;3.30;;;;;;;12.66;61.73;99079.11;105744;1259;72744;-27
2024/04/14 02:48:28;;;;;;;4.60;3.10;;;;;;;12.56;62.11;99081.76;105879;1259;61347;-27
2024/04/14 02:50:56;;;;;;;6.40;2.80;;;;;;;12.39;62.11;99083.11;105840;1252;61241;-27
2024/04/14 02:53:24;;;;;;;5.10;3.90;;;;;;;12.20;62.36;99076.77;105766;1257;74679;-27
2024/04/14 02:55:51;;;;;;;4.10;3.10;;;;;;;11.99;63.02;99079.58;105637;1260;74418;-27
2024/04/14 02:58:19;;;;;;;6.50;2.70;;;;;;;11.74;63.88;99081.54;105801;1257;72699;-27
2024/04/14 03:00:46;;;;;;;4.50;3.10;;;;;;;12.18;64.38;99083.52;105663;1257;61322;-27
2024/04/14 03:03:14;;;;;;;10.20;4.30;;;;;;;12.77;63.24;99084.05;105671;1267;61173;-28
2024/04/14 03:05:42;;;;;;;7.70;4.40;;;;;;;12.88;62.38;99083.09;105790;1256;73385;-28
2024/04/14 03:08:09;;;;;;;3.90;2.80;;;;;;;12.76;62.23;99082.73;105900;1251;73209;-27
2024/04/14 03:10:37;;;;;;;4.10;3.10;;;;;;;12.55;62.06;99077.33;105774;1257;72701;-27
2024/04/14 03:13:04;;;;;;;4.80;3.20;;;;;;;12.30;61.61;99073.73;105751;1256;61308;-27
2024/04/14 03:15:32;;;;;;;4.60;2.90;;;;;;;11.99;61.74;99070.34;105751;1257;61188;-28
2024/04/14 03:17:59;;;;;;;3.90;1.80;;;;;;;11.63;63.18;99071.86;105694;1256;74727;-27
2024/04/14 03:20:27;;;;;;;3.00;2.10;;;;;;;12.05;64.08;99072.14;105638;1258;74365;-27
2024/04/14 03:22:54;;;;;;;6.70;4.40;;;;;;;12.58;62.72;99070.58;105592;1254;72712;-27
2024/04/14 03:25:23;;;;;;;3.70;2.50;;;;;;;12.65;62.07;99067.89;105713;1257;61186;-27
2024/04/14 03:27:51;;;;;;;5.40;2.70;;;;;;;12.45;61.94;99065.85;105687;1253;61219;-27
2024/04/14 03:30:19;;;;;;;4.50;2.80;;;;;;;12.12;62.44;99063.48;105607;1254;74522;-27
2024/04/14 03:32:47;;;;;;;6.90;4.00;;;;;;;11.82;63.04;99059.29;105548;1258;74328;-27
2024/04/14 03:35:14;;;;;;;4.30;3.20;;;;;;;11.58;63.58;99067.08;105842;1256;71424;-27
2024/04/14 03:37:42;;;;;;;3.50;2.10;;;;;;;11.32;64.29;99068.67;105601;1259;61371;-26
2024/04/14 03:40:09;;;;;;;3.40;2.40;;;;;;;11.80;64.35;99065.16;105660;1256;61384;-27
2024/04/14 03:42:37;;;;;;;6.60;3.50;;;;;;;12.42;62.73;99063.46;105724;1257;74694;-27
2024/04/14 03:45:06;;;;;;;4.70;3.90;;;;;;;12.57;62.11;99060.55;105824;1254;73073;-27
2024/04/14 03:47:34;;;;;;;3.90;2.80;;;;;;;12.50;62.10;99057.23;105717;1255;72681;-27
2024/04/14 03:50:03;;;;;;;4.30;3.10;;;;;;;12.40;62.03;99057.96;105912;1257;61337;-27
2024/04/14 03:52:30;;;;;;;5.80;3.40;;;;;;;12.20;63.25;99058.14;105607;1254;61248;-26
2024/04/14 03:54:58;;;;;;;3.90;3.20;;;;;;;11.97;64.44;99054.69;105684;1259;74447;-27
2024/04/14 03:57:25;;;;;;;3.40;2.10;;;;;;;11.79;66.06;99058.11;105669;1257;74426;-27
2024/04/14 03:59:53;;;;;;;3.20;2.50;;;;;;;12.36;65.04;99058.79;105603;1254;72730;-27
2024/04/14 04:02:20;;;;;;;10.20;3.10;;;;;;;12.84;63.89;99059.73;105628;1260;61196;-27
2024/04/14 04:04:48;;;;;;;7.20;4.40;;;;;;;13.06;62.99;99057.29;105639;1251;61225;-27
2024/04/14 04:07:16;;;;;;;5.60;3.20;;;;;;;13.05;62.44;99053.64;105767;1257;74654;-27
2024/04/14 04:09:43;;;;;;;5.70;3.40;;;;;;;12.90;62.23;99048.09;105663;1251;74458;-27
2024/04/14 04:12:11;;;;;;;5.60;3.70;;;;;;;12.78;62.26;99051.94;105763;1258;72667;-27
2024/04/14 04:14:38;;;;;;;8.00;3.30;;;;;;;12.56;62.85;99047.82;105682;1254;61401;-27
2024/04/14 04:17:06;;;;;;;4.20;2.80;;;;;;;12.38;63.19;99047.84;105688;1258;61327;-26
2024/04/14 04:19:34;;;;;;;4.10;2.90;;;;;;;12.95;63.23;99047.44;105676;1257;74681;-27
2024/04/14 04:22:02;;;;;;;4.70;3.20;;;;;;;13.52;61.91;99044.38;105857;1257;74431;-27
2024/04/14 04:24:29;;;;;;;7.30;3.10;;;;;;;13.66;61.50;99044.05;105863;1257;72704;-27
2024/04/14 04:26:57;;;;;;;2.80;2.60;;;;;;;13.72;61.19;99044.44;105686;1259;61324;-27
2024/04/14 04:29:27;;;;;;;3.90;3.50;;;;;;;13.64;61.12;99042.49;105838;1256;61315;-27
2024/04/14 04:31:55;;;;;;;5.40;4.10;;;;;;;13.55;61.01;99036.52;105899;1255;73356;-27
2024/04/14 04:34:22;;;;;;;5.40;4.10;;;;;;;13.46;61.20;99035.42;105916;1255;74605;-27
2024/04/14 04:36:50;;;;;;;6.00;2.60;;;;;;;13.22;62.04;99037.67;105658;1258;72789;-27
2024/04/14 04:39:18;;;;;;;5.80;3.50;;;;;;;13.64;62.34;99037.27;105666;1256;61347;-27
2024/04/14 04:41:45;;;;;;;7.60;4.00;;;;;;;14.04;60.83;99036.66;105571;1253;61337;-27
2024/04/14 04:44:13;;;;;;;5.70;3.90;;;;;;;14.07;60.75;99035.17;105869;1266;73357;-27
2024/04/14 04:46:40;;;;;;;5.90;3.90;;;;;;;14.03;60.78;99033.30;105872;1251;72242;-27
2024/04/14 04:49:08;;;;;;;6.30;4.10;;;;;;;13.94;60.79;99035.98;105696;1255;71402;-27
2024/04/14 04:51:36;;;;;;;4.80;3.70;;;;;;;13.82;61.06;99039.42;105857;1257;61250;-27
2024/04/14 04:54:05;;;;;;;5.40;4.20;;;;;;;13.71;61.37;99041.52;105917;1257;61634;-27
2024/04/14 04:56:32;;;;;;;4.20;3.80;;;;;;;13.65;61.19;99040.34;105691;1254;74649;-27
2024/04/14 04:59:00;;;;;;;3.30;2.30;;;;;;;13.51;62.08;99041.09;105617;1258;74350;-26
2024/04/14 05:01:28;;;;;;;4.60;3.20;;;;;;;14.18;61.63;99032.16;105507;1256;73400;-27
2024/04/14 05:03:55;;;;;;;5.90;4.30;;;;;;;15.02;59.80;99026.95;105851;1257;61286;-27
2024/04/14 05:06:23;;;;;;;6.60;3.50;;;;;;;15.38;58.78;99027.70;105652;1257;61302;-27
2024/04/14 05:08:51;;;;;;;7.00;3.20;;;;;;;15.42;58.77;99027.70;105668;1258;74681;-27
2024/04/14 05:11:18;;;;;;;4.90;3.70;;;;;;;15.50;58.04;99019.05;105626;1267;74430;-27
2024/04/14 05:13:46;;;;;;;10.40;4.50;;;;;;;15.52;57.93;99020.52;105464;1257;72656;-27
2024/04/14 05:16:13;;;;;;;6.60;3.90;;;;;;;15.55;58.04;99020.94;105553;1260;61310;-27
2024/04/14 05:18:41;;;;;;;5.80;4.20;;;;;;;15.64;58.13;99012.89;105686;1258;61228;-27
2024/04/14 05:21:09;;;;;;;4.80;3.90;;;;;;;15.63;57.87;99010.54;105883;1254;74707;-27
2024/04/14 05:23:36;;;;;;;8.40;3.90;;;;;;;15.65;58.19;99007.48;105697;1259;74419;-26
2024/04/14 05:26:04;;;;;;;5.60;4.30;;;;;;;15.68;58.47;99004.74;105627;1255;72712;-27
2024/04/14 05:28:32;;;;;;;4.20;3.00;;;;;;;15.66;59.05;99005.49;105639;1257;61352;-26
2024/04/14 05:30:59;;;;;;;6.70;3.40;;;;;;;16.45;57.78;99003.60;105653;1255;61227;-26
2024/04/14 05:33:28;;;;;;;6.00;4.40;;;;;;;17.21;56.14;99005.50;105893;1254;74689;-26
2024/04/14 05:35:57;;;;;;;5.10;3.90;;;;;;;17.43;54.58;99000.39;102156;1251;4831800;-27
2024/04/14 05:38:25;;;;;;;7.30;4.50;;;;;;;17.45;54.27;98999.89;105902;1257;61235;-27
2024/04/14 05:40:52;;;;;;;5.20;3.70;;;;;;;17.37;55.02;98999.86;105824;1254;61359;-27
2024/04/14 05:43:20;;;;;;;6.80;3.90;;;;;;;17.33;55.42;98998.32;105605;1259;61289;-27
2024/04/14 05:45:49;;;;;;;5.00;3.50;;;;;;;17.43;54.60;98998.19;105627;1256;73469;-27
2024/04/14 05:48:17;;;;;;;6.30;4.10;;;;;;;17.54;54.12;99002.22;105672;1256;74288;-27
2024/04/14 05:50:45;;;;;;;7.70;4.60;;;;;;;17.54;53.60;99002.20;105782;1256;72675;-27
2024/04/14 05:53:12;;;;;;;6.60;4.00;;;;;;;17.54;53.92;98999.34;105533;1254;61369;-27
2024/04/14 05:55:40;;;;;;;6.00;4.40;;;;;;;17.57;53.65;98992.05;105475;1257;61285;-27
2024/04/14 05:58:08;;;;;;;8.70;4.30;;;;;;;17.62;54.12;98991.63;105715;1254;74646;-26
2024/04/14 06:00:36;;;;;;;9.90;4.80;;;;;;;17.72;54.02;98993.38;105890;1255;73112;-27
2024/04/14 06:03:05;;;;;;;8.00;4.10;;;;;;;17.83;53.24;98990.15;105726;1254;72743;-27
2024/04/14 06:05:32;;;;;;;8.40;4.50;;;;;;;17.89;53.75;98992.27;105702;1259;61218;-27
2024/04/14 06:08:00;;;;;;;11.10;4.60;;;;;;;17.93;53.10;98994.45;105655;1258;61241;-27
2024/04/14 06:10:28;;;;;;;6.30;4.40;;;;;;;17.86;53.41;98991.10;105882;1254;73459;-26
2024/04/14 06:12:56;;;;;;;7.20;4.70;;;;;;;17.76;52.96;98987.63;105691;1254;74392;-27
2024/04/14 06:15:26;;;;;;;5.50;4.30;;;;;;;17.73;53.24;98985.54;105816;1254;71461;-26
2024/04/14 06:17:53;;;;;;;7.80;4.60;;;;;;;17.66;53.53;98982.02;105548;1257;61321;-27
2024/04/14 06:20:21;;;;;;;8.80;4.20;;;;;;;17.46;53.84;98977.75;105472;1258;61162;-27
2024/04/14 06:22:49;;;;;;;7.50;4.40;;;;;;;17.66;53.36;98974.84;105484;1253;75094;-27
2024/04/14 06:25:16;;;;;;;6.90;4.80;;;;;;;17.85;53.33;98972.05;105481;1254;74471;-27
2024/04/14 06:27:44;;;;;;;6.90;4.70;;;;;;;17.89;52.97;98965.56;105467;1256;73321;-27
2024/04/14 06:30:12;;;;;;;7.20;4.70;;;;;;;17.92;52.91;98960.51;105476;1254;61368;-27
2024/04/14 06:32:40;;;;;;;6.30;3.80;;;;;;;18.06;52.26;98957.05;105606;1254;61308;-27
2024/04/14 06:35:08;;;;;;;5.60;4.20;;;;;;;18.04;52.34;98955.66;105692;1260;74694;-27
2024/04/14 06:37:36;;;;;;;8.10;4.30;;;;;;;17.87;52.93;98959.37;105619;1254;74446;-27
2024/04/14 06:40:05;;;;;;;5.90;4.50;;;;;;;18.14;51.94;98955.77;105551;1257;71397;-27
2024/04/14 06:42:33;;;;;;;5.60;3.90;;;;;;;18.17;52.11;98948.27;105458;1251;61327;-27
2024/04/14 06:45:00;;;;;;;7.30;4.30;;;;;;;18.28;51.72;98948.25;105474;1258;61234;-27
2024/04/14 06:47:28;;;;;;;15.60;4.50;;;;;;;18.33;51.91;98945.21;105469;1257;74621;-27
2024/04/14 06:49:59;;;;;;;8.30;4.30;;;;;;;18.37;51.11;98950.34;105506;1257;74576;-27
2024/04/14 06:52:26;;;;;;;7.70;3.50;;;;;;;18.57;51.13;98946.45;105458;1254;71763;-28
2024/04/14 06:54:54;;;;;;;6.30;3.80;;;;;;;18.62;50.31;98940.59;105468;1256;61234;-28
2024/04/14 06:57:22;;;;;;;7.20;3.70;;;;;;;18.77;49.83;98932.73;105517;1257;61530;-27
2024/04/14 06:59:49;;;;;;;5.80;3.80;;;;;;;18.89;48.84;98931.84;105489;1251;74794;-26
2024/04/14 07:02:17;;;;;;;6.60;3.00;;;;;;;19.06;48.82;98936.23;105472;1258;74422;-27
2024/04/14 07:04:44;;;;;;;6.10;3.00;;;;;;;19.28;48.34;98933.81;105627;1255;72815;-27
2024/04/14 07:07:12;;;;;;;5.70;3.50;;;;;;;19.47;48.64;98926.80;105495;1256;62014;-27
2024/04/14 07:09:41;;;;;;;9.70;3.60;;;;;;;19.40;47.61;98920.77;105677;1251;61337;-28
2024/04/14 07:12:08;;;;;;;10.70;4.00;;;;;;;19.64;47.76;98918.17;105813;1257;75942;-27
2024/04/14 07:14:36;;;;;;;7.70;4.20;;;;;;;19.67;46.48;98908.86;105708;1255;74488;-26
2024/04/14 07:17:03;;;;;;;3.80;2.80;;;;;;;19.82;46.40;98913.20;105689;1254;72782;-27
2024/04/14 07:19:31;;;;;;;8.20;4.00;;;;;;;20.00;45.73;98911.43;105773;1253;61304;-27
2024/04/14 07:21:58;;;;;;;6.10;2.90;;;;;;;20.11;45.85;98909.48;105488;1254;61230;-26
2024/04/14 07:24:26;;;;;;;3.20;2.10;;;;;;;20.13;45.38;98910.21;105512;1257;73866;-26
2024/04/14 07:26:53;;;;;;;3.50;2.40;;;;;;;20.09;45.56;98909.84;105509;1256;73265;-26
2024/04/14 07:29:21;;;;;;;5.20;3.10;;;;;;;19.94;45.12;98909.66;105480;1257;72754;-26
2024/04/14 07:31:49;;;;;;;7.40;3.00;;;;;;;20.17;44.64;98905.31;105504;1254;62460;-26
2024/04/14 07:34:16;;;;;;;5.10;2.20;;;;;;;20.35;44.61;98900.20;105482;1254;61250;-27
2024/04/14 07:36:44;;;;;;;5.80;2.60;;;;;;;20.58;43.38;98890.34;105498;1257;73642;-28
2024/04/14 07:39:12;;;;;;;5.20;2.20;;;;;;;20.64;42.88;98888.11;105501;1259;75082;-28
2024/04/14 07:41:39;;;;;;;5.20;2.30;;;;;;;20.72;43.36;98887.75;105519;1254;72670;-27
2024/04/14 07:44:07;;;;;;;4.90;2.30;;;;;;;21.00;42.78;98884.36;105626;1253;61320;-28
2024/04/14 07:46:34;;;;;;;3.80;2.10;;;;;;;21.12;42.96;98882.86;105468;1254;61235;-28
2024/04/14 07:49:02;;;;;;;7.10;2.90;;;;;;;21.14;43.37;98882.71;105585;1253;75293;-28
2024/04/14 07:51:30;;;;;;;4.00;1.70;;;;;;;21.33;42.96;98876.09;105905;1251;73293;-28
2024/04/14 07:53:58;;;;;;;5.20;1.70;;;;;;;21.61;41.54;98868.99;105554;1253;72773;-28
2024/04/14 07:56:25;;;;;;;3.00;1.70;;;;;;;21.47;39.71;98862.06;105507;1254;61318;-28
2024/04/14 07:58:53;;;;;;;2.90;1.70;;;;;;;21.57;39.72;98869.10;105633;1254;61289;-28
2024/04/14 08:01:21;;;;;;;5.50;2.20;;;;;;;21.77;39.08;98867.75;105547;1257;75367;-28
2024/04/14 08:03:49;;;;;;;6.50;2.30;;;;;;;21.89;39.61;98862.23;105502;1257;74530;-25
2024/04/14 08:06:24;;;;;;;4.90;1.90;;;;;;;21.75;39.55;98865.19;105500;1252;71502;-25
2024/04/14 08:08:51;;;;;;;4.90;2.10;;;;;;;21.82;39.29;98865.52;105547;1258;61315;-27
2024/04/14 08:11:19;;;;;;;4.50;2.30;;;;;;;21.96;39.21;98860.48;105537;1257;61192;-28
2024/04/14 08:13:47;;;;;;;4.60;1.80;;;;;;;22.22;38.74;98858.49;105618;1252;74157;-28
2024/04/14 08:16:14;;;;;;;7.10;2.20;;;;;;;22.35;38.57;98847.75;105461;1257;75143;-28
2024/04/14 08:18:44;;;;;;;4.80;1.50;;;;;;;22.39;38.21;98838.48;105539;1251;71936;-27
2024/04/14 08:21:12;;;;;;;7.00;2.30;;;;;;;22.50;38.61;98837.67;105527;1257;61177;-27
2024/04/14 08:23:40;;;;;;;5.00;2.20;;;;;;;22.69;37.54;98835.61;105720;1253;61183;-27
2024/04/14 08:26:07;;;;;;;2.20;1.60;;;;;;;22.80;37.61;98837.08;105695;1253;74212;-28
2024/04/14 08:28:35;;;;;;;4.80;1.70;;;;;;;23.04;37.66;98841.81;105506;1252;73398;-28
2024/04/14 08:31:02;;;;;;;4.70;2.20;;;;;;;22.92;37.23;98835.02;105520;1254;72847;-27
2024/04/14 08:33:30;;;;;;;3.70;1.60;;;;;;;22.90;36.60;98836.19;105527;1253;61326;-27
2024/04/14 08:35:58;;;;;;;5.10;2.40;;;;;;;23.03;36.65;98832.89;105541;1251;61276;-27
2024/04/14 08:38:25;;;;;;;3.40;1.60;;;;;;;23.21;37.01;98828.88;105490;1256;75336;-27
2024/04/14 08:40:53;;;;;;;4.60;2.00;;;;;;;23.27;36.51;98834.25;105476;1256;73252;-27
2024/04/14 08:43:21;;;;;;;4.10;2.40;;;;;;;23.28;36.93;98819.05;105714;1253;72736;-27
2024/04/14 08:45:53;;;;;;;3.40;2.10;;;;;;;23.15;36.93;98821.39;105651;1253;61301;-28
2024/04/14 08:48:20;;;;;;;2.90;2.10;;;;;;;23.34;36.83;98819.83;105470;1254;61244;-26
2024/04/14 08:50:48;;;;;;;5.10;1.70;;;;;;;23.21;36.37;98813.85;105463;1254;75361;-26
2024/04/14 08:53:17;;;;;;;3.50;2.00;;;;;;;23.13;37.22;98805.15;105268;1260;74488;-27
2024/04/14 08:55:45;;;;;;;4.60;2.10;;;;;;;23.16;36.87;98801.83;105506;1261;71563;-26
2024/04/14 08:58:14;;;;;;;3.60;1.60;;;;;;;23.07;36.42;98807.05;105863;1253;61358;-26
2024/04/14 09:00:43;;;;;;;3.60;1.60;;;;;;;23.39;36.28;98801.45;105569;1251;61235;-26
2024/04/14 09:03:11;;;;;;;7.60;1.90;;;;;;;23.29;36.56;98790.23;105459;1253;74718;-26
2024/04/14 09:05:40;;;;;;;3.50;1.70;;;;;;;23.60;34.66;98792.34;105514;1257;75086;-27
2024/04/14 09:08:08;;;;;;;3.10;1.70;;;;;;;23.67;35.46;98785.98;105598;1253;72701;-27
2024/04/14 09:10:35;;;;;;;2.30;1.20;;;;;;;23.55;34.99;98780.11;105493;1257;61233;-27
2024/04/14 09:13:04;;;;;;;6.60;1.70;;;;;;;23.31;35.27;98780.36;105502;1257;61392;-27
2024/04/14 09:15:41;;;;;;;3.20;2.00;;;;;;;23.37;34.78;98774.65;105683;1253;75265;-26
2024/04/14 09:18:09;;;;;;;8.20;1.40;;;;;;;23.35;34.92;98776.79;105654;1253;73400;-26
2024/04/14 09:20:36;;;;;;;3.10;1.40;;;;;;;23.70;34.28;98776.29;105779;1257;71469;-27
2024/04/14 09:23:04;;;;;;;3.80;1.80;;;;;;;23.74;33.72;98777.60;105465;1253;61225;-27
2024/04/14 09:25:32;;;;;;;3.50;1.90;;;;;;;23.64;34.31;98773.27;105673;1257;61315;-27
2024/04/14 09:28:01;;;;;;;5.50;1.90;;;;;;;23.58;34.98;98769.23;105517;1257;74137;-27
2024/04/14 09:30:29;;;;;;;4.80;2.00;;;;;;;23.83;34.01;98763.52;105590;1260;74454;-27
2024/04/14 09:32:57;;;;;;;4.50;1.80;;;;;;;23.77;34.19;98756.02;105633;1253;72737;-28
2024/04/14 09:35:25;;;;;;;2.60;1.30;;;;;;;23.65;34.13;98759.11;105735;1253;61973;-27
2024/04/14 09:37:52;;;;;;;4.40;1.70;;;;;;;23.88;34.15;98758.20;105332;1254;61382;-27
2024/04/14 09:40:22;;;;;;;3.40;1.40;;;;;;;24.13;33.38;98748.61;105800;1257;73495;-27
2024/04/14 09:42:51;;;;;;;3.30;1.80;;;;;;;23.91;33.28;98746.40;105915;1257;73071;-27
2024/04/14 09:45:18;;;;;;;4.10;1.90;;;;;;;23.95;33.54;98747.06;105602;1254;71726;-27
2024/04/14 09:47:46;;;;;;;3.10;1.60;;;;;;;24.08;34.01;98747.84;105521;1257;61333;-27
2024/04/14 09:50:13;;;;;;;2.50;1.80;;;;;;;24.24;33.72;98741.79;105567;1253;61215;-26
2024/04/14 09:52:41;;;;;;;7.60;2.10;;;;;;;24.37;33.23;98740.61;105438;1253;74750;-26
2024/04/14 09:55:09;;;;;;;5.50;1.90;;;;;;;24.22;33.46;98741.23;105526;1251;74211;-26
2024/04/14 09:57:37;;;;;;;3.90;2.00;;;;;;;24.13;33.96;98735.06;105604;1253;72090;-26
2024/04/14 10:00:07;;;;;;;2.90;1.90;;;;;;;24.02;34.98;98729.62;105871;1253;61367;-27
2024/04/14 10:02:37;;;;;;;3.00;1.60;;;;;;;23.84;34.99;98718.40;105669;1251;61331;-27
2024/04/14 10:05:07;;;;;;;7.00;2.50;;;;;;;23.90;35.55;98723.73;105537;1260;73454;-26
2024/04/14 10:07:36;;;;;;;2.60;2.00;;;;;;;23.89;36.03;98720.00;105727;1253;73350;-26
2024/04/14 10:10:07;;;;;;;5.60;2.30;;;;;;;23.81;35.06;98711.98;105484;1252;71921;-26
2024/04/14 10:12:35;;;;;;;5.90;2.50;;;;;;;24.03;36.15;98709.94;105464;1252;61289;-26
2024/04/14 10:15:03;;;;;;;4.00;2.60;;;;;;;24.05;36.56;98710.58;105491;1253;61223;-26
2024/04/14 10:17:35;;;;;;;5.90;1.60;;;;;;;24.01;35.43;98703.18;105217;1251;75131;-26
2024/04/14 10:20:12;;;;;;;5.00;2.50;;;;;;;24.04;35.68;98692.09;105740;1251;75092;-26
2024/04/14 10:22:41;;;;;;;4.70;2.30;;;;;;;24.08;35.99;98688.11;105666;1257;72798;-26
2024/04/14 10:25:19;;;;;;;4.50;2.20;;;;;;;24.19;35.59;98677.80;105729;1260;61339;-27
2024/04/14 10:27:47;;;;;;;3.60;1.90;;;;;;;24.02;35.49;98665.08;105702;1251;61281;-27
2024/04/14 10:30:21;;;;;;;5.20;2.20;;;;;;;24.04;35.20;98667.73;105617;1257;73451;-26
2024/04/14 10:33:07;;;;;;;4.30;2.10;;;;;;;24.10;35.59;98666.15;105533;1257;74403;-27
2024/04/14 10:35:35;;;;;;;3.80;1.90;;;;;;;24.18;35.11;98655.33;105358;1259;73096;-27
2024/04/14 10:38:02;;;;;;;7.50;2.20;;;;;;;23.99;35.41;98651.42;105602;1253;61302;-27
2024/04/14 10:40:30;;;;;;;6.10;2.40;;;;;;;24.03;34.99;98645.17;105863;1251;61301;-27
2024/04/14 10:42:57;;;;;;;3.30;2.20;;;;;;;24.22;35.23;98648.23;105550;1251;74670;-27
2024/04/14 10:45:27;;;;;;;6.30;2.70;;;;;;;24.25;34.53;98639.02;105500;1257;74596;-27
2024/04/14 10:47:56;;;;;;;5.80;2.30;;;;;;;24.51;34.77;98647.19;105278;1260;73310;-27
2024/04/14 10:50:27;;;;;;;3.90;2.40;;;;;;;24.72;34.17;98648.70;105590;1253;61320;-28
2024/04/14 10:52:56;;;;;;;4.20;2.30;;;;;;;24.71;33.69;98636.22;105499;1253;61710;-28
2024/04/14 10:55:27;;;;;;;3.80;2.30;;;;;;;24.38;34.72;98630.38;105831;1251;77101;-28
2024/04/14 10:57:54;;;;;;;2.50;2.00;;;;;;;24.52;34.62;98630.98;105531;1253;73249;-27
2024/04/14 11:00:22;;;;;;;5.30;2.10;;;;;;;24.37;34.39;98625.67;105501;1255;72874;-28
2024/04/14 11:02:49;;;;;;;3.20;1.90;;;;;;;24.54;34.22;98627.94;105519;1251;61539;-27
2024/04/14 11:05:17;;;;;;;3.50;2.10;;;;;;;24.41;34.16;98617.95;105515;1257;61341;-27
2024/04/14 11:07:44;;;;;;;3.80;2.10;;;;;;;24.32;34.31;98620.27;105651;1256;73450;-27
2024/04/14 11:10:12;;;;;;;4.50;2.10;;;;;;;24.20;34.67;98620.70;105684;1254;75041;-27
2024/04/14 11:12:40;;;;;;;4.80;2.40;;;;;;;24.09;35.03;98615.28;105758;1253;71460;-27
2024/04/14 11:15:09;;;;;;;5.30;2.30;;;;;;;24.27;35.22;98619.10;105645;1253;61354;-27
2024/04/14 11:17:38;;;;;;;4.60;2.00;;;;;;;24.33;35.27;98608.53;105597;1261;61296;-27
2024/04/14 11:20:06;;;;;;;4.10;2.30;;;;;;;24.51;34.40;98599.41;105444;1257;74746;-27
2024/04/14 11:22:34;;;;;;;5.30;2.20;;;;;;;24.30;34.68;98594.06;105440;1254;75102;-27
2024/04/14 11:25:02;;;;;;;4.50;2.30;;;;;;;24.36;34.40;98597.95;105618;1252;72992;-27
2024/04/14 11:27:31;;;;;;;2.90;2.00;;;;;;;24.53;34.56;98590.73;105580;1253;62666;-27